sensor_id;sensor_type;location;lat;lon;timestamp;P1;durP1;ratioP1;P2;durP2;ratioP2
8151;SDS011;4117;53.622;9.958;2024-02-23T00:00:16;1.53;;;0.67;;
8151;SDS011;4117;53.622;9.958;2024-02-23T00:02:43;3.60;;;0.80;;
8151;SDS011;4117;53.622;9.958;2024-02-23T00:05:09;0.60;;;0.60;;
8151;SDS011;4117;53.622;9.958;2024-02-23T00:07:36;2.10;;;0.70;;
8151;SDS011;4117;53.622;9.958;2024-02-23T00:10:05;1.17;;;0.50;;
8151;SDS011;4117;53.622;9.958;2024-02-23T00:12:33;1.27;;;0.80;;
8151;SDS011;4117;53.622;9.958;2024-02-23T00:15:00;1.03;;;0.70;;
8151;SDS011;4117;53.622;9.958;2024-02-23T00:17:27;1.13;;;0.70;;
8151;SDS011;4117;53.622;9.958;2024-02-23T00:19:54;1.43;;;0.80;;
8151;SDS011;4117;53.622;9.958;2024-02-23T00:22:21;2.53;;;0.90;;
8151;SDS011;4117;53.622;9.958;2024-02-23T00:24:48;3.13;;;0.97;;
8151;SDS011;4117;53.622;9.958;2024-02-23T00:27:16;2.70;;;1.00;;
8151;SDS011;4117;53.622;9.958;2024-02-23T00:29:44;3.33;;;0.80;;
8151;SDS011;4117;53.622;9.958;2024-02-23T00:32:11;2.13;;;1.00;;
8151;SDS011;4117;53.622;9.958;2024-02-23T00:34:38;1.20;;;0.83;;
8151;SDS011;4117;53.622;9.958;2024-02-23T00:37:05;1.73;;;1.03;;
8151;SDS011;4117;53.622;9.958;2024-02-23T00:39:33;2.37;;;0.87;;
8151;SDS011;4117;53.622;9.958;2024-02-23T00:42:01;1.77;;;0.80;;
8151;SDS011;4117;53.622;9.958;2024-02-23T00:44:30;1.87;;;0.90;;
8151;SDS011;4117;53.622;9.958;2024-02-23T00:46:57;1.70;;;0.90;;
8151;SDS011;4117;53.622;9.958;2024-02-23T00:49:26;1.00;;;0.63;;
8151;SDS011;4117;53.622;9.958;2024-02-23T00:51:53;0.90;;;0.70;;
8151;SDS011;4117;53.622;9.958;2024-02-23T00:54:20;1.40;;;0.80;;
8151;SDS011;4117;53.622;9.958;2024-02-23T00:56:47;1.17;;;0.43;;
8151;SDS011;4117;53.622;9.958;2024-02-23T00:59:14;0.77;;;0.50;;
8151;SDS011;4117;53.622;9.958;2024-02-23T01:01:42;4.57;;;0.70;;
8151;SDS011;4117;53.622;9.958;2024-02-23T01:04:09;0.60;;;0.47;;
8151;SDS011;4117;53.622;9.958;2024-02-23T01:06:36;0.50;;;0.50;;
8151;SDS011;4117;53.622;9.958;2024-02-23T01:09:03;0.67;;;0.30;;
8151;SDS011;4117;53.622;9.958;2024-02-23T01:11:30;0.77;;;0.50;;
8151;SDS011;4117;53.622;9.958;2024-02-23T01:13:58;0.67;;;0.50;;
8151;SDS011;4117;53.622;9.958;2024-02-23T01:16:25;0.47;;;0.40;;
8151;SDS011;4117;53.622;9.958;2024-02-23T01:18:53;0.77;;;0.57;;
8151;SDS011;4117;53.622;9.958;2024-02-23T01:21:20;0.90;;;0.40;;
8151;SDS011;4117;53.622;9.958;2024-02-23T01:23:47;0.37;;;0.37;;
8151;SDS011;4117;53.622;9.958;2024-02-23T01:26:14;0.67;;;0.60;;
8151;SDS011;4117;53.622;9.958;2024-02-23T01:28:41;0.37;;;0.37;;
8151;SDS011;4117;53.622;9.958;2024-02-23T01:31:08;0.50;;;0.50;;
8151;SDS011;4117;53.622;9.958;2024-02-23T01:33:36;0.83;;;0.60;;
8151;SDS011;4117;53.622;9.958;2024-02-23T01:36:05;0.60;;;0.50;;
8151;SDS011;4117;53.622;9.958;2024-02-23T01:38:34;0.87;;;0.30;;
8151;SDS011;4117;53.622;9.958;2024-02-23T01:41:01;0.37;;;0.33;;
8151;SDS011;4117;53.622;9.958;2024-02-23T01:43:28;0.97;;;0.60;;
8151;SDS011;4117;53.622;9.958;2024-02-23T01:45:55;0.80;;;0.50;;
8151;SDS011;4117;53.622;9.958;2024-02-23T01:48:21;0.87;;;0.30;;
8151;SDS011;4117;53.622;9.958;2024-02-23T01:50:49;0.20;;;0.20;;
8151;SDS011;4117;53.622;9.958;2024-02-23T01:53:17;0.40;;;0.40;;
8151;SDS011;4117;53.622;9.958;2024-02-23T01:55:45;0.83;;;0.20;;
8151;SDS011;4117;53.622;9.958;2024-02-23T01:58:13;0.90;;;0.40;;
8151;SDS011;4117;53.622;9.958;2024-02-23T02:00:41;0.30;;;0.30;;
8151;SDS011;4117;53.622;9.958;2024-02-23T02:03:08;1.03;;;0.33;;
8151;SDS011;4117;53.622;9.958;2024-02-23T02:05:35;0.43;;;0.23;;
8151;SDS011;4117;53.622;9.958;2024-02-23T02:08:02;0.30;;;0.20;;
8151;SDS011;4117;53.622;9.958;2024-02-23T02:10:31;0.53;;;0.40;;
8151;SDS011;4117;53.622;9.958;2024-02-23T02:13:01;0.10;;;0.10;;
8151;SDS011;4117;53.622;9.958;2024-02-23T02:15:29;0.60;;;0.33;;
8151;SDS011;4117;53.622;9.958;2024-02-23T02:17:56;0.20;;;0.20;;
8151;SDS011;4117;53.622;9.958;2024-02-23T02:20:23;0.13;;;0.13;;
8151;SDS011;4117;53.622;9.958;2024-02-23T02:22:51;0.20;;;0.20;;
8151;SDS011;4117;53.622;9.958;2024-02-23T02:25:18;0.90;;;0.10;;
8151;SDS011;4117;53.622;9.958;2024-02-23T02:27:47;0.60;;;0.30;;
8151;SDS011;4117;53.622;9.958;2024-02-23T02:30:14;1.40;;;0.30;;
8151;SDS011;4117;53.622;9.958;2024-02-23T02:32:41;0.10;;;0.10;;
8151;SDS011;4117;53.622;9.958;2024-02-23T02:35:09;0.10;;;0.10;;
8151;SDS011;4117;53.622;9.958;2024-02-23T02:37:38;0.20;;;0.20;;
8151;SDS011;4117;53.622;9.958;2024-02-23T02:40:05;1.13;;;0.30;;
8151;SDS011;4117;53.622;9.958;2024-02-23T02:42:33;0.03;;;0.03;;
8151;SDS011;4117;53.622;9.958;2024-02-23T02:45:01;1.90;;;0.20;;
8151;SDS011;4117;53.622;9.958;2024-02-23T02:47:28;0.10;;;0.10;;
8151;SDS011;4117;53.622;9.958;2024-02-23T02:49:55;0.03;;;0.03;;
8151;SDS011;4117;53.622;9.958;2024-02-23T02:52:22;0.10;;;0.10;;
8151;SDS011;4117;53.622;9.958;2024-02-23T02:54:49;0.57;;;0.17;;
8151;SDS011;4117;53.622;9.958;2024-02-23T02:57:16;2.27;;;0.30;;
8151;SDS011;4117;53.622;9.958;2024-02-23T02:59:43;1.70;;;0.20;;
8151;SDS011;4117;53.622;9.958;2024-02-23T03:02:12;0.30;;;0.27;;
8151;SDS011;4117;53.622;9.958;2024-02-23T03:04:46;0.33;;;0.30;;
8151;SDS011;4117;53.622;9.958;2024-02-23T03:07:13;0.40;;;0.37;;
8151;SDS011;4117;53.622;9.958;2024-02-23T03:09:40;0.77;;;0.40;;
8151;SDS011;4117;53.622;9.958;2024-02-23T03:12:08;0.60;;;0.30;;
8151;SDS011;4117;53.622;9.958;2024-02-23T03:14:36;0.87;;;0.50;;
8151;SDS011;4117;53.622;9.958;2024-02-23T03:17:05;0.90;;;0.30;;
8151;SDS011;4117;53.622;9.958;2024-02-23T03:19:35;3.30;;;0.57;;
8151;SDS011;4117;53.622;9.958;2024-02-23T03:22:02;0.97;;;0.40;;
8151;SDS011;4117;53.622;9.958;2024-02-23T03:24:30;1.17;;;0.40;;
8151;SDS011;4117;53.622;9.958;2024-02-23T03:26:57;1.07;;;0.53;;
8151;SDS011;4117;53.622;9.958;2024-02-23T03:29:24;0.40;;;0.40;;
8151;SDS011;4117;53.622;9.958;2024-02-23T03:31:54;0.70;;;0.50;;
8151;SDS011;4117;53.622;9.958;2024-02-23T03:34:21;1.17;;;0.40;;
8151;SDS011;4117;53.622;9.958;2024-02-23T03:36:49;0.33;;;0.30;;
8151;SDS011;4117;53.622;9.958;2024-02-23T03:39:16;0.30;;;0.30;;
8151;SDS011;4117;53.622;9.958;2024-02-23T03:41:44;1.13;;;0.53;;
8151;SDS011;4117;53.622;9.958;2024-02-23T03:44:11;0.93;;;0.27;;
8151;SDS011;4117;53.622;9.958;2024-02-23T03:46:38;0.30;;;0.30;;
8151;SDS011;4117;53.622;9.958;2024-02-23T03:49:05;1.43;;;0.63;;
8151;SDS011;4117;53.622;9.958;2024-02-23T03:51:32;1.03;;;0.60;;
8151;SDS011;4117;53.622;9.958;2024-02-23T03:54:03;0.70;;;0.43;;
8151;SDS011;4117;53.622;9.958;2024-02-23T03:56:30;1.70;;;0.80;;
8151;SDS011;4117;53.622;9.958;2024-02-23T03:59:11;0.73;;;0.70;;
8151;SDS011;4117;53.622;9.958;2024-02-23T04:01:38;1.73;;;0.93;;
8151;SDS011;4117;53.622;9.958;2024-02-23T04:04:05;1.73;;;0.70;;
8151;SDS011;4117;53.622;9.958;2024-02-23T04:06:33;1.07;;;0.80;;
8151;SDS011;4117;53.622;9.958;2024-02-23T04:09:00;2.43;;;0.80;;
8151;SDS011;4117;53.622;9.958;2024-02-23T04:11:31;2.03;;;0.90;;
8151;SDS011;4117;53.622;9.958;2024-02-23T04:14:00;2.47;;;0.80;;
8151;SDS011;4117;53.622;9.958;2024-02-23T04:16:30;0.70;;;0.70;;
8151;SDS011;4117;53.622;9.958;2024-02-23T04:18:58;1.27;;;0.60;;
8151;SDS011;4117;53.622;9.958;2024-02-23T04:21:26;0.90;;;0.70;;
8151;SDS011;4117;53.622;9.958;2024-02-23T04:23:53;1.27;;;0.60;;
8151;SDS011;4117;53.622;9.958;2024-02-23T04:26:20;0.90;;;0.70;;
8151;SDS011;4117;53.622;9.958;2024-02-23T04:28:48;2.53;;;0.83;;
8151;SDS011;4117;53.622;9.958;2024-02-23T04:31:15;2.37;;;0.80;;
8151;SDS011;4117;53.622;9.958;2024-02-23T04:33:42;0.77;;;0.70;;
8151;SDS011;4117;53.622;9.958;2024-02-23T04:36:10;1.77;;;0.90;;
8151;SDS011;4117;53.622;9.958;2024-02-23T04:38:38;1.10;;;0.80;;
8151;SDS011;4117;53.622;9.958;2024-02-23T04:41:05;2.03;;;1.00;;
8151;SDS011;4117;53.622;9.958;2024-02-23T04:43:33;4.30;;;1.07;;
8151;SDS011;4117;53.622;9.958;2024-02-23T04:46:01;1.50;;;0.90;;
8151;SDS011;4117;53.622;9.958;2024-02-23T04:48:30;1.60;;;0.90;;
8151;SDS011;4117;53.622;9.958;2024-02-23T04:50:57;2.83;;;1.00;;
8151;SDS011;4117;53.622;9.958;2024-02-23T04:53:25;1.43;;;0.80;;
8151;SDS011;4117;53.622;9.958;2024-02-23T04:55:52;1.63;;;0.90;;
8151;SDS011;4117;53.622;9.958;2024-02-23T04:58:19;1.43;;;0.80;;
8151;SDS011;4117;53.622;9.958;2024-02-23T05:00:47;2.10;;;0.90;;
8151;SDS011;4117;53.622;9.958;2024-02-23T05:03:15;2.07;;;1.00;;
8151;SDS011;4117;53.622;9.958;2024-02-23T05:05:43;2.63;;;1.20;;
8151;SDS011;4117;53.622;9.958;2024-02-23T05:08:10;1.93;;;1.27;;
8151;SDS011;4117;53.622;9.958;2024-02-23T05:10:37;2.07;;;1.20;;
8151;SDS011;4117;53.622;9.958;2024-02-23T05:13:07;1.90;;;1.03;;
8151;SDS011;4117;53.622;9.958;2024-02-23T05:15:34;4.27;;;1.40;;
8151;SDS011;4117;53.622;9.958;2024-02-23T05:18:01;3.77;;;1.37;;
8151;SDS011;4117;53.622;9.958;2024-02-23T05:20:31;2.00;;;1.20;;
8151;SDS011;4117;53.622;9.958;2024-02-23T05:23:00;3.93;;;1.27;;
8151;SDS011;4117;53.622;9.958;2024-02-23T05:25:28;3.70;;;1.40;;
8151;SDS011;4117;53.622;9.958;2024-02-23T05:27:55;5.20;;;1.30;;
8151;SDS011;4117;53.622;9.958;2024-02-23T05:30:22;4.43;;;1.27;;
8151;SDS011;4117;53.622;9.958;2024-02-23T05:33:04;2.73;;;1.40;;
8151;SDS011;4117;53.622;9.958;2024-02-23T05:35:33;5.27;;;1.37;;
8151;SDS011;4117;53.622;9.958;2024-02-23T05:38:00;2.17;;;1.30;;
8151;SDS011;4117;53.622;9.958;2024-02-23T05:40:28;3.70;;;1.20;;
8151;SDS011;4117;53.622;9.958;2024-02-23T05:42:55;3.67;;;1.40;;
8151;SDS011;4117;53.622;9.958;2024-02-23T05:45:23;2.37;;;1.37;;
8151;SDS011;4117;53.622;9.958;2024-02-23T05:48:10;2.43;;;1.23;;
8151;SDS011;4117;53.622;9.958;2024-02-23T05:50:51;5.53;;;1.63;;
8151;SDS011;4117;53.622;9.958;2024-02-23T05:53:19;3.60;;;1.30;;
8151;SDS011;4117;53.622;9.958;2024-02-23T05:55:46;1.97;;;1.27;;
8151;SDS011;4117;53.622;9.958;2024-02-23T05:58:15;2.80;;;1.37;;
8151;SDS011;4117;53.622;9.958;2024-02-23T06:00:42;3.80;;;1.40;;
8151;SDS011;4117;53.622;9.958;2024-02-23T06:03:09;2.17;;;1.30;;
8151;SDS011;4117;53.622;9.958;2024-02-23T06:05:38;1.83;;;1.20;;
8151;SDS011;4117;53.622;9.958;2024-02-23T06:08:11;4.53;;;1.50;;
8151;SDS011;4117;53.622;9.958;2024-02-23T06:10:38;3.83;;;1.43;;
8151;SDS011;4117;53.622;9.958;2024-02-23T06:13:05;2.20;;;1.13;;
8151;SDS011;4117;53.622;9.958;2024-02-23T06:15:32;2.97;;;1.23;;
8151;SDS011;4117;53.622;9.958;2024-02-23T06:17:59;4.13;;;1.20;;
8151;SDS011;4117;53.622;9.958;2024-02-23T06:20:26;2.33;;;1.30;;
8151;SDS011;4117;53.622;9.958;2024-02-23T06:22:53;4.23;;;1.10;;
8151;SDS011;4117;53.622;9.958;2024-02-23T06:25:22;4.70;;;1.53;;
8151;SDS011;4117;53.622;9.958;2024-02-23T06:27:49;2.13;;;1.10;;
8151;SDS011;4117;53.622;9.958;2024-02-23T06:30:16;4.17;;;1.33;;
8151;SDS011;4117;53.622;9.958;2024-02-23T06:32:43;3.00;;;1.30;;
8151;SDS011;4117;53.622;9.958;2024-02-23T06:35:10;2.87;;;1.40;;
8151;SDS011;4117;53.622;9.958;2024-02-23T06:37:37;3.20;;;1.33;;
8151;SDS011;4117;53.622;9.958;2024-02-23T06:40:05;3.90;;;1.40;;
8151;SDS011;4117;53.622;9.958;2024-02-23T06:42:34;6.97;;;1.57;;
8151;SDS011;4117;53.622;9.958;2024-02-23T06:45:02;3.83;;;1.40;;
8151;SDS011;4117;53.622;9.958;2024-02-23T06:47:30;2.57;;;1.30;;
8151;SDS011;4117;53.622;9.958;2024-02-23T06:49:57;3.70;;;1.43;;
8151;SDS011;4117;53.622;9.958;2024-02-23T06:52:23;2.33;;;1.30;;
8151;SDS011;4117;53.622;9.958;2024-02-23T06:54:51;3.73;;;1.20;;
8151;SDS011;4117;53.622;9.958;2024-02-23T06:57:18;3.50;;;1.53;;
8151;SDS011;4117;53.622;9.958;2024-02-23T06:59:46;2.83;;;1.30;;
8151;SDS011;4117;53.622;9.958;2024-02-23T07:02:14;2.50;;;1.40;;
8151;SDS011;4117;53.622;9.958;2024-02-23T07:04:43;2.97;;;1.50;;
8151;SDS011;4117;53.622;9.958;2024-02-23T07:07:10;3.37;;;1.40;;
8151;SDS011;4117;53.622;9.958;2024-02-23T07:09:38;3.27;;;1.40;;
8151;SDS011;4117;53.622;9.958;2024-02-23T07:12:05;6.07;;;1.80;;
8151;SDS011;4117;53.622;9.958;2024-02-23T07:14:36;3.87;;;1.57;;
8151;SDS011;4117;53.622;9.958;2024-02-23T07:23:36;4.90;;;1.73;;
8151;SDS011;4117;53.622;9.958;2024-02-23T07:26:03;5.40;;;1.80;;
8151;SDS011;4117;53.622;9.958;2024-02-23T07:28:30;3.73;;;1.60;;
8151;SDS011;4117;53.622;9.958;2024-02-23T07:30:58;4.23;;;1.80;;
8151;SDS011;4117;53.622;9.958;2024-02-23T07:33:25;4.83;;;1.60;;
8151;SDS011;4117;53.622;9.958;2024-02-23T07:35:53;3.57;;;1.90;;
8151;SDS011;4117;53.622;9.958;2024-02-23T07:38:20;2.20;;;1.60;;
8151;SDS011;4117;53.622;9.958;2024-02-23T07:40:47;5.87;;;1.80;;
8151;SDS011;4117;53.622;9.958;2024-02-23T07:43:14;5.43;;;1.90;;
8151;SDS011;4117;53.622;9.958;2024-02-23T07:45:41;3.10;;;1.53;;
8151;SDS011;4117;53.622;9.958;2024-02-23T07:48:08;3.00;;;1.40;;
8151;SDS011;4117;53.622;9.958;2024-02-23T07:50:35;5.53;;;1.80;;
8151;SDS011;4117;53.622;9.958;2024-02-23T07:53:04;4.70;;;2.10;;
8151;SDS011;4117;53.622;9.958;2024-02-23T07:55:31;4.73;;;2.17;;
8151;SDS011;4117;53.622;9.958;2024-02-23T07:57:58;3.67;;;1.67;;
8151;SDS011;4117;53.622;9.958;2024-02-23T08:00:26;3.97;;;1.90;;
8151;SDS011;4117;53.622;9.958;2024-02-23T08:02:53;2.63;;;1.53;;
8151;SDS011;4117;53.622;9.958;2024-02-23T08:05:21;4.40;;;2.00;;
8151;SDS011;4117;53.622;9.958;2024-02-23T08:07:49;5.00;;;1.90;;
8151;SDS011;4117;53.622;9.958;2024-02-23T08:10:17;3.50;;;1.80;;
8151;SDS011;4117;53.622;9.958;2024-02-23T08:12:44;5.73;;;1.80;;
8151;SDS011;4117;53.622;9.958;2024-02-23T08:15:11;5.43;;;1.87;;
8151;SDS011;4117;53.622;9.958;2024-02-23T08:17:38;8.27;;;2.00;;
8151;SDS011;4117;53.622;9.958;2024-02-23T08:20:06;6.10;;;1.87;;
8151;SDS011;4117;53.622;9.958;2024-02-23T08:22:34;2.90;;;1.57;;
8151;SDS011;4117;53.622;9.958;2024-02-23T08:25:01;4.20;;;1.60;;
8151;SDS011;4117;53.622;9.958;2024-02-23T08:27:30;7.90;;;1.70;;
8151;SDS011;4117;53.622;9.958;2024-02-23T08:29:57;6.20;;;1.57;;
8151;SDS011;4117;53.622;9.958;2024-02-23T08:32:24;4.87;;;1.70;;
8151;SDS011;4117;53.622;9.958;2024-02-23T08:34:51;5.73;;;1.83;;
8151;SDS011;4117;53.622;9.958;2024-02-23T08:37:24;9.10;;;1.80;;
8151;SDS011;4117;53.622;9.958;2024-02-23T08:39:51;8.43;;;1.93;;
8151;SDS011;4117;53.622;9.958;2024-02-23T08:42:18;3.70;;;1.63;;
8151;SDS011;4117;53.622;9.958;2024-02-23T08:44:46;6.37;;;1.90;;
8151;SDS011;4117;53.622;9.958;2024-02-23T08:47:13;4.47;;;1.87;;
8151;SDS011;4117;53.622;9.958;2024-02-23T08:49:40;4.90;;;1.27;;
8151;SDS011;4117;53.622;9.958;2024-02-23T08:52:07;4.57;;;1.70;;
8151;SDS011;4117;53.622;9.958;2024-02-23T08:54:34;7.33;;;1.97;;
8151;SDS011;4117;53.622;9.958;2024-02-23T08:57:02;4.33;;;1.90;;
8151;SDS011;4117;53.622;9.958;2024-02-23T08:59:30;7.07;;;1.90;;
8151;SDS011;4117;53.622;9.958;2024-02-23T09:01:58;5.27;;;1.87;;
8151;SDS011;4117;53.622;9.958;2024-02-23T09:04:25;3.27;;;1.60;;
8151;SDS011;4117;53.622;9.958;2024-02-23T09:06:53;9.03;;;1.70;;
8151;SDS011;4117;53.622;9.958;2024-02-23T09:09:19;4.77;;;1.73;;
8151;SDS011;4117;53.622;9.958;2024-02-23T09:11:46;4.37;;;1.70;;
8151;SDS011;4117;53.622;9.958;2024-02-23T09:14:13;11.30;;;2.10;;
8151;SDS011;4117;53.622;9.958;2024-02-23T09:16:40;4.30;;;1.50;;
8151;SDS011;4117;53.622;9.958;2024-02-23T09:19:09;3.50;;;1.43;;
8151;SDS011;4117;53.622;9.958;2024-02-23T09:21:36;4.10;;;1.50;;
8151;SDS011;4117;53.622;9.958;2024-02-23T09:24:03;4.20;;;1.77;;
8151;SDS011;4117;53.622;9.958;2024-02-23T09:26:30;4.07;;;1.20;;
8151;SDS011;4117;53.622;9.958;2024-02-23T09:28:57;5.20;;;1.60;;
8151;SDS011;4117;53.622;9.958;2024-02-23T09:31:24;3.97;;;1.50;;
8151;SDS011;4117;53.622;9.958;2024-02-23T09:33:53;5.07;;;1.60;;
8151;SDS011;4117;53.622;9.958;2024-02-23T09:36:21;3.80;;;1.43;;
8151;SDS011;4117;53.622;9.958;2024-02-23T09:38:49;4.80;;;1.60;;
8151;SDS011;4117;53.622;9.958;2024-02-23T09:41:19;4.57;;;1.70;;
8151;SDS011;4117;53.622;9.958;2024-02-23T09:43:47;4.40;;;1.50;;
8151;SDS011;4117;53.622;9.958;2024-02-23T09:46:15;6.03;;;1.63;;
8151;SDS011;4117;53.622;9.958;2024-02-23T09:48:43;4.90;;;1.43;;
8151;SDS011;4117;53.622;9.958;2024-02-23T09:51:10;1.97;;;1.27;;
8151;SDS011;4117;53.622;9.958;2024-02-23T09:53:39;4.93;;;1.60;;
8151;SDS011;4117;53.622;9.958;2024-02-23T09:56:07;6.47;;;1.50;;
8151;SDS011;4117;53.622;9.958;2024-02-23T09:58:35;3.10;;;1.50;;
8151;SDS011;4117;53.622;9.958;2024-02-23T10:01:03;3.63;;;1.43;;
8151;SDS011;4117;53.622;9.958;2024-02-23T10:03:30;3.47;;;1.37;;
8151;SDS011;4117;53.622;9.958;2024-02-23T10:05:58;6.33;;;1.60;;
8151;SDS011;4117;53.622;9.958;2024-02-23T10:08:26;6.17;;;1.93;;
8151;SDS011;4117;53.622;9.958;2024-02-23T10:10:54;3.67;;;1.23;;
8151;SDS011;4117;53.622;9.958;2024-02-23T10:13:22;6.50;;;1.73;;
8151;SDS011;4117;53.622;9.958;2024-02-23T10:15:50;4.03;;;1.30;;
8151;SDS011;4117;53.622;9.958;2024-02-23T10:18:17;4.90;;;1.67;;
8151;SDS011;4117;53.622;9.958;2024-02-23T10:20:44;5.97;;;1.40;;
8151;SDS011;4117;53.622;9.958;2024-02-23T10:23:12;5.40;;;1.80;;
8151;SDS011;4117;53.622;9.958;2024-02-23T10:25:39;3.63;;;1.60;;
8151;SDS011;4117;53.622;9.958;2024-02-23T10:28:08;5.20;;;1.80;;
8151;SDS011;4117;53.622;9.958;2024-02-23T10:30:36;5.90;;;1.70;;
8151;SDS011;4117;53.622;9.958;2024-02-23T10:33:04;6.03;;;1.60;;
8151;SDS011;4117;53.622;9.958;2024-02-23T10:35:32;5.07;;;1.57;;
8151;SDS011;4117;53.622;9.958;2024-02-23T10:38:03;4.00;;;1.57;;
8151;SDS011;4117;53.622;9.958;2024-02-23T10:40:34;3.60;;;1.43;;
8151;SDS011;4117;53.622;9.958;2024-02-23T10:43:06;4.30;;;1.23;;
8151;SDS011;4117;53.622;9.958;2024-02-23T10:45:38;4.20;;;1.63;;
8151;SDS011;4117;53.622;9.958;2024-02-23T10:48:06;3.60;;;1.47;;
8151;SDS011;4117;53.622;9.958;2024-02-23T10:50:34;8.50;;;2.07;;
8151;SDS011;4117;53.622;9.958;2024-02-23T10:53:02;5.53;;;1.73;;
8151;SDS011;4117;53.622;9.958;2024-02-23T10:55:33;3.37;;;1.40;;
8151;SDS011;4117;53.622;9.958;2024-02-23T10:58:02;4.83;;;1.67;;
8151;SDS011;4117;53.622;9.958;2024-02-23T11:00:34;4.97;;;1.67;;
8151;SDS011;4117;53.622;9.958;2024-02-23T11:03:01;4.23;;;1.40;;
8151;SDS011;4117;53.622;9.958;2024-02-23T11:05:31;5.13;;;1.60;;
8151;SDS011;4117;53.622;9.958;2024-02-23T11:07:59;6.63;;;1.33;;
8151;SDS011;4117;53.622;9.958;2024-02-23T11:10:26;5.77;;;1.60;;
8151;SDS011;4117;53.622;9.958;2024-02-23T11:12:57;3.43;;;1.50;;
8151;SDS011;4117;53.622;9.958;2024-02-23T11:15:28;3.40;;;1.23;;
8151;SDS011;4117;53.622;9.958;2024-02-23T11:18:00;4.10;;;1.63;;
8151;SDS011;4117;53.622;9.958;2024-02-23T11:20:33;4.63;;;1.33;;
8151;SDS011;4117;53.622;9.958;2024-02-23T11:23:01;6.77;;;1.50;;
8151;SDS011;4117;53.622;9.958;2024-02-23T11:25:38;4.67;;;1.47;;
8151;SDS011;4117;53.622;9.958;2024-02-23T11:28:06;3.93;;;1.47;;
8151;SDS011;4117;53.622;9.958;2024-02-23T11:30:33;5.43;;;1.30;;
8151;SDS011;4117;53.622;9.958;2024-02-23T11:33:02;3.60;;;1.30;;
8151;SDS011;4117;53.622;9.958;2024-02-23T11:35:29;5.13;;;1.17;;
8151;SDS011;4117;53.622;9.958;2024-02-23T11:37:56;7.17;;;1.33;;
8151;SDS011;4117;53.622;9.958;2024-02-23T11:40:25;4.13;;;1.30;;
8151;SDS011;4117;53.622;9.958;2024-02-23T11:42:54;6.10;;;1.33;;
8151;SDS011;4117;53.622;9.958;2024-02-23T11:45:21;2.17;;;1.20;;
8151;SDS011;4117;53.622;9.958;2024-02-23T11:47:49;3.03;;;1.60;;
8151;SDS011;4117;53.622;9.958;2024-02-23T11:50:18;5.87;;;1.50;;
8151;SDS011;4117;53.622;9.958;2024-02-23T11:52:45;4.87;;;1.50;;
8151;SDS011;4117;53.622;9.958;2024-02-23T11:55:14;3.90;;;1.20;;
8151;SDS011;4117;53.622;9.958;2024-02-23T11:57:47;3.83;;;1.27;;
8151;SDS011;4117;53.622;9.958;2024-02-23T12:00:14;5.07;;;1.50;;
8151;SDS011;4117;53.622;9.958;2024-02-23T12:02:43;4.67;;;1.30;;
8151;SDS011;4117;53.622;9.958;2024-02-23T12:05:11;3.80;;;1.40;;
8151;SDS011;4117;53.622;9.958;2024-02-23T12:07:40;5.00;;;1.50;;
8151;SDS011;4117;53.622;9.958;2024-02-23T12:10:07;5.20;;;1.43;;
8151;SDS011;4117;53.622;9.958;2024-02-23T12:12:36;5.20;;;1.40;;
8151;SDS011;4117;53.622;9.958;2024-02-23T12:15:03;3.57;;;1.10;;
8151;SDS011;4117;53.622;9.958;2024-02-23T12:17:35;4.37;;;1.10;;
8151;SDS011;4117;53.622;9.958;2024-02-23T12:20:02;4.83;;;1.30;;
8151;SDS011;4117;53.622;9.958;2024-02-23T12:22:30;3.60;;;1.47;;
8151;SDS011;4117;53.622;9.958;2024-02-23T12:24:58;2.50;;;1.07;;
8151;SDS011;4117;53.622;9.958;2024-02-23T12:27:27;2.83;;;1.23;;
8151;SDS011;4117;53.622;9.958;2024-02-23T12:29:54;3.17;;;1.17;;
8151;SDS011;4117;53.622;9.958;2024-02-23T12:32:22;3.50;;;1.43;;
8151;SDS011;4117;53.622;9.958;2024-02-23T12:34:49;3.43;;;1.27;;
8151;SDS011;4117;53.622;9.958;2024-02-23T12:37:16;4.73;;;1.40;;
8151;SDS011;4117;53.622;9.958;2024-02-23T12:39:44;2.57;;;1.03;;
8151;SDS011;4117;53.622;9.958;2024-02-23T12:42:12;3.43;;;1.40;;
8151;SDS011;4117;53.622;9.958;2024-02-23T12:44:39;2.63;;;1.07;;
8151;SDS011;4117;53.622;9.958;2024-02-23T12:47:06;5.00;;;1.40;;
8151;SDS011;4117;53.622;9.958;2024-02-23T12:49:33;2.70;;;0.90;;
8151;SDS011;4117;53.622;9.958;2024-02-23T12:52:01;3.53;;;1.20;;
8151;SDS011;4117;53.622;9.958;2024-02-23T12:54:27;4.67;;;1.50;;
8151;SDS011;4117;53.622;9.958;2024-02-23T12:56:54;4.50;;;1.43;;
8151;SDS011;4117;53.622;9.958;2024-02-23T12:59:23;2.97;;;1.20;;
8151;SDS011;4117;53.622;9.958;2024-02-23T13:01:50;2.17;;;1.00;;
8151;SDS011;4117;53.622;9.958;2024-02-23T13:04:17;5.23;;;1.50;;
8151;SDS011;4117;53.622;9.958;2024-02-23T13:06:44;2.57;;;1.10;;
8151;SDS011;4117;53.622;9.958;2024-02-23T13:09:12;2.13;;;0.90;;
8151;SDS011;4117;53.622;9.958;2024-02-23T13:11:40;2.97;;;1.20;;
8151;SDS011;4117;53.622;9.958;2024-02-23T13:14:08;3.30;;;1.27;;
8151;SDS011;4117;53.622;9.958;2024-02-23T13:16:37;3.00;;;1.30;;
8151;SDS011;4117;53.622;9.958;2024-02-23T13:19:03;3.77;;;1.13;;
8151;SDS011;4117;53.622;9.958;2024-02-23T13:21:30;3.30;;;1.30;;
8151;SDS011;4117;53.622;9.958;2024-02-23T13:23:58;2.93;;;1.13;;
8151;SDS011;4117;53.622;9.958;2024-02-23T13:26:25;2.73;;;0.93;;
8151;SDS011;4117;53.622;9.958;2024-02-23T13:28:52;3.83;;;1.33;;
8151;SDS011;4117;53.622;9.958;2024-02-23T13:31:19;2.70;;;1.03;;
8151;SDS011;4117;53.622;9.958;2024-02-23T13:33:48;2.80;;;1.10;;
8151;SDS011;4117;53.622;9.958;2024-02-23T13:36:15;2.57;;;1.10;;
8151;SDS011;4117;53.622;9.958;2024-02-23T13:38:42;3.10;;;1.07;;
8151;SDS011;4117;53.622;9.958;2024-02-23T13:41:09;1.70;;;1.00;;
8151;SDS011;4117;53.622;9.958;2024-02-23T13:43:36;3.77;;;1.30;;
8151;SDS011;4117;53.622;9.958;2024-02-23T13:46:04;2.10;;;1.10;;
8151;SDS011;4117;53.622;9.958;2024-02-23T13:48:31;2.47;;;1.10;;
8151;SDS011;4117;53.622;9.958;2024-02-23T13:51:00;2.87;;;1.00;;
8151;SDS011;4117;53.622;9.958;2024-02-23T13:53:28;2.63;;;1.30;;
8151;SDS011;4117;53.622;9.958;2024-02-23T13:55:56;2.30;;;1.10;;
8151;SDS011;4117;53.622;9.958;2024-02-23T13:58:23;5.60;;;1.40;;
8151;SDS011;4117;53.622;9.958;2024-02-23T14:00:50;3.47;;;1.60;;
8151;SDS011;4117;53.622;9.958;2024-02-23T14:03:17;2.80;;;1.23;;
8151;SDS011;4117;53.622;9.958;2024-02-23T14:05:44;1.90;;;1.00;;
8151;SDS011;4117;53.622;9.958;2024-02-23T14:08:13;2.53;;;1.23;;
8151;SDS011;4117;53.622;9.958;2024-02-23T14:10:40;2.80;;;1.10;;
8151;SDS011;4117;53.622;9.958;2024-02-23T14:13:08;2.53;;;1.10;;
8151;SDS011;4117;53.622;9.958;2024-02-23T14:15:35;2.70;;;1.10;;
8151;SDS011;4117;53.622;9.958;2024-02-23T14:18:01;2.57;;;1.20;;
8151;SDS011;4117;53.622;9.958;2024-02-23T14:20:29;3.10;;;1.10;;
8151;SDS011;4117;53.622;9.958;2024-02-23T14:22:55;2.63;;;1.10;;
8151;SDS011;4117;53.622;9.958;2024-02-23T14:25:24;2.83;;;1.10;;
8151;SDS011;4117;53.622;9.958;2024-02-23T14:27:51;3.63;;;1.17;;
8151;SDS011;4117;53.622;9.958;2024-02-23T14:30:20;2.70;;;1.20;;
8151;SDS011;4117;53.622;9.958;2024-02-23T14:32:47;3.30;;;1.03;;
8151;SDS011;4117;53.622;9.958;2024-02-23T14:35:14;2.30;;;1.00;;
8151;SDS011;4117;53.622;9.958;2024-02-23T14:37:41;3.63;;;1.00;;
8151;SDS011;4117;53.622;9.958;2024-02-23T14:40:09;2.03;;;0.93;;
8151;SDS011;4117;53.622;9.958;2024-02-23T14:42:38;2.90;;;1.10;;
8151;SDS011;4117;53.622;9.958;2024-02-23T14:45:06;2.27;;;1.23;;
8151;SDS011;4117;53.622;9.958;2024-02-23T14:47:34;1.97;;;1.10;;
8151;SDS011;4117;53.622;9.958;2024-02-23T14:50:01;3.80;;;1.10;;
8151;SDS011;4117;53.622;9.958;2024-02-23T14:52:28;1.97;;;1.00;;
8151;SDS011;4117;53.622;9.958;2024-02-23T14:54:55;2.43;;;1.20;;
8151;SDS011;4117;53.622;9.958;2024-02-23T14:57:22;2.00;;;1.00;;
8151;SDS011;4117;53.622;9.958;2024-02-23T14:59:51;2.77;;;1.00;;
8151;SDS011;4117;53.622;9.958;2024-02-23T15:02:18;2.67;;;1.07;;
8151;SDS011;4117;53.622;9.958;2024-02-23T15:04:46;2.83;;;1.13;;
8151;SDS011;4117;53.622;9.958;2024-02-23T15:07:13;2.57;;;1.00;;
8151;SDS011;4117;53.622;9.958;2024-02-23T15:09:40;2.83;;;1.00;;
8151;SDS011;4117;53.622;9.958;2024-02-23T15:12:08;6.47;;;1.20;;
8151;SDS011;4117;53.622;9.958;2024-02-23T15:14:35;3.07;;;1.10;;
8151;SDS011;4117;53.622;9.958;2024-02-23T15:17:03;2.63;;;1.00;;
8151;SDS011;4117;53.622;9.958;2024-02-23T15:19:30;2.57;;;1.10;;
8151;SDS011;4117;53.622;9.958;2024-02-23T15:21:57;2.07;;;0.90;;
8151;SDS011;4117;53.622;9.958;2024-02-23T15:24:24;1.90;;;1.07;;